createdAt,value
2016-09-30T00:00:32.587Z,0.00
2016-09-30T00:01:33.097Z,0.00
2016-09-30T00:02:33.759Z,0.00
2016-09-30T00:03:34.120Z,0.00
2016-09-30T00:04:34.635Z,0.00
2016-09-30T00:05:35.148Z,0.00
2016-09-30T00:06:35.664Z,0.00
2016-09-30T00:07:36.186Z,0.00
2016-09-30T00:08:36.689Z,0.00
2016-09-30T00:09:37.206Z,0.00
2016-09-30T00:10:37.723Z,0.00
2016-09-30T00:11:38.234Z,0.00
2016-09-30T00:12:38.755Z,0.00
2016-09-30T00:13:40.763Z,0.00
2016-09-30T00:14:39.770Z,0.00
2016-09-30T00:15:40.300Z,0.00
2016-09-30T00:16:40.793Z,0.00
2016-09-30T00:17:41.305Z,0.00
2016-09-30T00:18:41.814Z,0.00
2016-09-30T00:19:42.325Z,0.00
2016-09-30T00:20:42.841Z,0.00
2016-09-30T00:21:43.350Z,0.00
2016-09-30T00:22:43.865Z,0.00
2016-09-30T00:23:44.371Z,0.00
2016-09-30T00:24:44.885Z,0.00
2016-09-30T00:25:45.400Z,0.00
2016-09-30T00:26:45.915Z,0.00
2016-09-30T00:27:46.429Z,0.00
2016-09-30T00:28:46.940Z,0.00
2016-09-30T00:29:47.453Z,0.00
2016-09-30T00:30:48.113Z,0.00
2016-09-30T00:31:48.496Z,0.00
2016-09-30T00:32:48.993Z,0.00
2016-09-30T00:33:49.501Z,0.00
2016-09-30T00:34:50.013Z,0.00
2016-09-30T00:35:50.523Z,0.00
2016-09-30T00:36:51.036Z,0.00
2016-09-30T00:37:51.540Z,0.00
2016-09-30T00:38:52.051Z,0.00
2016-09-30T00:39:52.718Z,0.00
2016-09-30T00:40:53.076Z,0.00
2016-09-30T00:41:53.740Z,0.00
2016-09-30T00:42:54.103Z,0.00
2016-09-30T00:43:54.608Z,0.00
2016-09-30T00:44:55.126Z,0.00
2016-09-30T00:45:55.649Z,0.00
2016-09-30T00:46:56.156Z,0.00
2016-09-30T00:47:56.678Z,0.00
2016-09-30T00:48:57.192Z,0.00
2016-09-30T00:49:57.710Z,0.00
2016-09-30T00:50:58.216Z,0.00
2016-09-30T00:51:58.723Z,0.00
2016-09-30T00:52:59.237Z,0.00
2016-09-30T00:53:59.753Z,0.00
2016-09-30T00:55:00.409Z,0.00
2016-09-30T00:56:00.767Z,0.00
2016-09-30T00:57:01.280Z,0.00
2016-09-30T00:58:01.793Z,0.00
2016-09-30T00:59:02.303Z,0.00
2016-09-30T01:00:02.815Z,0.00
2016-09-30T01:01:03.333Z,0.00
2016-09-30T01:02:03.833Z,0.00
2016-09-30T01:03:04.350Z,0.00
2016-09-30T01:04:04.854Z,0.00
2016-09-30T01:05:05.367Z,0.00
2016-09-30T01:06:05.875Z,0.00
2016-09-30T01:07:06.391Z,0.00
2016-09-30T01:08:06.919Z,0.00
2016-09-30T01:09:07.417Z,0.00
2016-09-30T01:10:07.924Z,0.00
2016-09-30T01:11:08.438Z,0.00
2016-09-30T01:12:08.949Z,0.00
2016-09-30T01:13:09.462Z,0.00
2016-09-30T01:14:09.970Z,0.00
2016-09-30T01:15:10.486Z,0.00
2016-09-30T01:16:10.999Z,0.00
2016-09-30T01:17:11.659Z,0.00
2016-09-30T01:18:12.173Z,0.00
2016-09-30T01:19:12.679Z,0.00
2016-09-30T01:20:13.067Z,0.00
2016-09-30T01:21:13.553Z,0.00
2016-09-30T01:22:14.068Z,0.00
2016-09-30T01:23:14.735Z,0.00
2016-09-30T01:24:15.101Z,0.00
2016-09-30T01:25:15.618Z,0.00
2016-09-30T01:26:16.131Z,0.00
2016-09-30T01:27:16.645Z,0.00
2016-09-30T01:28:17.308Z,0.00
2016-09-30T01:29:17.670Z,0.00
2016-09-30T01:30:18.186Z,0.00
2016-09-30T01:31:19.747Z,0.00
2016-09-30T01:32:19.221Z,0.00
2016-09-30T01:33:19.721Z,0.00
2016-09-30T01:34:20.384Z,0.00
2016-09-30T01:35:20.741Z,0.00
2016-09-30T01:36:21.262Z,0.00
2016-09-30T01:37:21.763Z,0.00
2016-09-30T01:38:22.276Z,0.00
2016-09-30T01:39:22.792Z,0.00
2016-09-30T01:40:23.299Z,0.00
2016-09-30T01:41:23.818Z,0.00
2016-09-30T01:42:24.335Z,0.00
2016-09-30T01:43:24.848Z,0.00
2016-09-30T01:44:25.351Z,0.00
2016-09-30T01:45:26.018Z,0.00
2016-09-30T01:46:26.529Z,0.00
2016-09-30T01:47:26.889Z,0.00
2016-09-30T01:48:27.401Z,0.00
2016-09-30T01:49:28.807Z,0.00
2016-09-30T01:50:28.419Z,0.00
2016-09-30T01:51:28.936Z,0.00
2016-09-30T01:52:29.449Z,0.00
2016-09-30T01:53:30.117Z,0.00
2016-09-30T01:54:30.479Z,0.00
2016-09-30T01:55:30.991Z,0.00
2016-09-30T01:56:31.502Z,0.00
2016-09-30T01:57:32.020Z,0.00
2016-09-30T01:58:32.523Z,0.00
2016-09-30T01:59:33.035Z,0.00
2016-09-30T02:00:33.551Z,0.00
2016-09-30T02:01:34.219Z,0.00
2016-09-30T02:02:34.593Z,0.00
2016-09-30T02:03:35.097Z,0.00
2016-09-30T02:04:35.766Z,0.00
2016-09-30T02:05:36.260Z,0.00
2016-09-30T02:06:36.627Z,0.00
2016-09-30T02:07:37.139Z,0.00
2016-09-30T02:08:37.663Z,0.00
2016-09-30T02:09:38.166Z,0.00
2016-09-30T02:10:38.827Z,0.00
2016-09-30T02:11:39.188Z,0.00
2016-09-30T02:12:39.698Z,0.00
2016-09-30T02:13:40.218Z,0.00
2016-09-30T02:14:40.876Z,0.00
2016-09-30T02:15:41.237Z,0.00
2016-09-30T02:16:41.757Z,0.00
2016-09-30T02:17:42.258Z,0.00
2016-09-30T02:18:42.768Z,0.00
2016-09-30T02:19:44.034Z,0.00
2016-09-30T02:20:43.939Z,0.00
2016-09-30T02:21:44.330Z,0.00
2016-09-30T02:22:44.819Z,0.00
2016-09-30T02:23:45.329Z,0.00
2016-09-30T02:24:45.840Z,0.00
2016-09-30T02:25:46.352Z,0.00
2016-09-30T02:26:46.859Z,0.00
2016-09-30T02:27:47.373Z,0.00
2016-09-30T02:28:47.882Z,0.00
2016-09-30T02:29:48.545Z,0.00
2016-09-30T02:30:48.903Z,0.00
2016-09-30T02:31:49.567Z,0.00
2016-09-30T02:32:49.927Z,0.00
2016-09-30T02:33:50.437Z,0.00
2016-09-30T02:34:50.949Z,0.00
2016-09-30T02:35:51.467Z,0.00
2016-09-30T02:36:51.986Z,0.00
2016-09-30T02:37:52.499Z,0.00
2016-09-30T02:38:53.015Z,0.00
2016-09-30T02:39:53.527Z,0.00
2016-09-30T02:40:54.039Z,0.00
2016-09-30T02:41:54.553Z,0.00
2016-09-30T02:42:55.068Z,0.00
2016-09-30T02:43:55.605Z,0.00
2016-09-30T02:44:56.090Z,0.00
2016-09-30T02:45:56.598Z,0.00
2016-09-30T02:46:57.113Z,0.00
2016-09-30T02:47:57.773Z,0.00
2016-09-30T02:48:58.137Z,0.00
2016-09-30T02:50:01.651Z,0.00
2016-09-30T02:50:59.164Z,0.00
2016-09-30T02:51:59.672Z,0.00
2016-09-30T02:53:00.192Z,0.00
2016-09-30T02:54:00.697Z,0.00
2016-09-30T02:55:01.217Z,0.00
2016-09-30T02:56:01.723Z,0.00
2016-09-30T02:57:02.232Z,0.00
2016-09-30T02:58:02.748Z,0.00
2016-09-30T02:59:03.256Z,0.00
2016-09-30T03:00:03.913Z,0.00
2016-09-30T03:01:04.274Z,0.00
2016-09-30T03:02:04.792Z,0.00
2016-09-30T03:03:05.453Z,0.00
2016-09-30T03:04:05.814Z,0.00
2016-09-30T03:05:06.350Z,0.00
2016-09-30T03:06:06.860Z,0.00
2016-09-30T03:07:08.240Z,0.00
2016-09-30T03:08:08.153Z,0.00
2016-09-30T03:09:08.530Z,0.00
2016-09-30T03:10:08.870Z,0.00
2016-09-30T03:11:09.406Z,0.00
2016-09-30T03:12:10.077Z,0.00
2016-09-30T03:13:10.423Z,0.00
2016-09-30T03:14:10.948Z,0.00
2016-09-30T03:15:11.475Z,0.00
2016-09-30T03:16:11.984Z,0.00
2016-09-30T03:17:12.799Z,0.00
2016-09-30T03:18:13.142Z,0.00
2016-09-30T03:19:13.682Z,0.00
2016-09-30T03:20:14.321Z,0.00
2016-09-30T03:21:14.536Z,0.00
2016-09-30T03:22:15.047Z,0.00
2016-09-30T03:23:15.557Z,0.00
2016-09-30T03:24:16.065Z,0.00
2016-09-30T03:25:18.104Z,0.00
2016-09-30T03:26:17.234Z,0.00
2016-09-30T03:27:17.748Z,0.00
2016-09-30T03:28:18.140Z,0.00
2016-09-30T03:29:18.620Z,0.00
2016-09-30T03:30:19.151Z,0.00
2016-09-30T03:31:19.644Z,0.00
2016-09-30T03:32:20.160Z,0.00
2016-09-30T03:33:20.670Z,0.00
2016-09-30T03:34:21.335Z,0.00
2016-09-30T03:35:21.695Z,0.00
2016-09-30T03:36:22.355Z,0.00
2016-09-30T03:37:22.719Z,0.00
2016-09-30T03:38:23.233Z,0.00
2016-09-30T03:39:23.753Z,0.00
2016-09-30T03:40:24.262Z,0.00
2016-09-30T03:41:24.774Z,0.00
2016-09-30T03:42:25.287Z,0.00
2016-09-30T03:43:25.798Z,0.00
2016-09-30T03:44:26.451Z,0.00
2016-09-30T03:45:26.810Z,0.00
2016-09-30T03:46:27.327Z,0.00
2016-09-30T03:47:27.835Z,0.00
2016-09-30T03:48:28.348Z,0.00
2016-09-30T03:49:28.860Z,0.00
2016-09-30T03:50:29.372Z,0.00
2016-09-30T03:51:29.883Z,0.00
2016-09-30T03:52:30.399Z,0.00
2016-09-30T03:53:30.915Z,0.00
2016-09-30T03:54:31.431Z,0.00
2016-09-30T03:55:33.293Z,0.00
2016-09-30T03:56:32.453Z,0.00
2016-09-30T03:57:32.963Z,0.00
2016-09-30T03:58:33.637Z,0.00
2016-09-30T03:59:34.009Z,0.00
2016-09-30T04:00:34.498Z,0.00
2016-09-30T04:01:35.008Z,0.00
2016-09-30T04:02:35.521Z,0.00
2016-09-30T04:03:36.033Z,0.00
2016-09-30T04:04:36.691Z,0.00
2016-09-30T04:05:37.053Z,0.00
2016-09-30T04:06:37.564Z,0.00
2016-09-30T04:07:38.068Z,0.00
2016-09-30T04:08:38.589Z,0.00
2016-09-30T04:09:39.243Z,0.00
2016-09-30T04:10:39.605Z,0.00
2016-09-30T04:11:40.121Z,0.00
2016-09-30T04:12:40.781Z,0.00
2016-09-30T04:13:41.288Z,0.00
2016-09-30T04:14:41.654Z,0.00
2016-09-30T04:15:42.170Z,0.00
2016-09-30T04:16:42.686Z,0.00
2016-09-30T04:17:43.195Z,0.00
2016-09-30T04:18:43.704Z,0.00
2016-09-30T04:19:44.214Z,0.00
2016-09-30T04:20:44.730Z,0.00
2016-09-30T04:21:45.240Z,0.00
2016-09-30T04:22:45.747Z,0.00
2016-09-30T04:23:46.263Z,0.00
2016-09-30T04:24:46.770Z,0.00
2016-09-30T04:25:47.280Z,0.00
2016-09-30T04:26:47.792Z,0.00
2016-09-30T04:27:48.301Z,0.00
2016-09-30T04:28:48.967Z,0.00
2016-09-30T04:29:49.345Z,0.00
2016-09-30T04:30:49.851Z,0.00
2016-09-30T04:31:50.362Z,0.00
2016-09-30T04:32:50.872Z,0.00
2016-09-30T04:33:51.383Z,0.00
2016-09-30T04:34:51.896Z,0.00
2016-09-30T04:35:52.403Z,0.00
2016-09-30T04:36:52.913Z,0.00
2016-09-30T04:37:53.574Z,0.00
2016-09-30T04:38:53.936Z,0.00
2016-09-30T04:39:54.449Z,0.00
2016-09-30T04:40:54.963Z,0.00
2016-09-30T04:41:55.476Z,0.00
2016-09-30T04:42:55.992Z,0.00
2016-09-30T04:43:56.507Z,0.00
2016-09-30T04:44:57.011Z,0.00
2016-09-30T04:45:57.525Z,0.00
2016-09-30T04:46:58.036Z,0.00
2016-09-30T04:47:58.545Z,0.00
2016-09-30T04:48:59.201Z,0.00
2016-09-30T04:49:59.570Z,0.00
2016-09-30T04:51:00.074Z,0.00
2016-09-30T04:52:00.589Z,0.00
2016-09-30T04:53:01.175Z,0.00
2016-09-30T04:54:01.610Z,0.00
2016-09-30T04:55:02.144Z,0.00
2016-09-30T04:56:02.633Z,0.00
2016-09-30T04:57:03.292Z,0.00
2016-09-30T04:58:03.807Z,0.00
2016-09-30T04:59:04.172Z,0.00
2016-09-30T05:00:04.679Z,0.00
2016-09-30T05:01:05.213Z,0.00
2016-09-30T05:02:06.906Z,0.00
2016-09-30T05:03:06.218Z,0.00
2016-09-30T05:04:06.728Z,0.00
2016-09-30T05:05:07.245Z,0.00
2016-09-30T05:06:07.760Z,0.00
2016-09-30T05:07:08.578Z,0.00
2016-09-30T05:08:08.796Z,0.00
2016-09-30T05:09:09.314Z,0.00
2016-09-30T05:10:09.836Z,0.00
2016-09-30T05:11:10.488Z,0.00
2016-09-30T05:12:10.854Z,0.00
2016-09-30T05:13:11.361Z,0.00
2016-09-30T05:14:11.874Z,0.00
2016-09-30T05:15:12.543Z,0.00
2016-09-30T05:16:13.056Z,0.00
2016-09-30T05:17:13.415Z,0.00
2016-09-30T05:18:13.927Z,0.00
2016-09-30T05:19:14.442Z,0.00
2016-09-30T05:20:15.250Z,0.00
2016-09-30T05:21:15.464Z,0.00
2016-09-30T05:22:15.974Z,0.00
2016-09-30T05:23:16.492Z,0.00
2016-09-30T05:24:17.000Z,0.00
2016-09-30T05:25:17.661Z,0.00
2016-09-30T05:26:18.025Z,0.00
2016-09-30T05:27:18.539Z,0.00
2016-09-30T05:28:19.044Z,0.00
2016-09-30T05:29:19.555Z,0.00
2016-09-30T05:30:20.222Z,0.00
2016-09-30T05:31:20.586Z,0.00
2016-09-30T05:32:21.112Z,1.00
2016-09-30T05:33:21.751Z,1.00
2016-09-30T05:34:22.266Z,1.00
2016-09-30T05:35:22.779Z,1.00
2016-09-30T05:36:23.300Z,1.00
2016-09-30T05:37:23.660Z,1.00
2016-09-30T05:38:24.169Z,1.00
2016-09-30T05:39:24.679Z,1.00
2016-09-30T05:40:25.213Z,1.00
2016-09-30T05:41:27.201Z,1.00
2016-09-30T05:42:26.207Z,1.00
2016-09-30T05:43:26.866Z,1.00
2016-09-30T05:44:27.236Z,1.00
2016-09-30T05:45:27.909Z,1.00
2016-09-30T05:46:28.271Z,1.00
2016-09-30T05:47:28.782Z,1.00
2016-09-30T05:48:29.292Z,1.00
2016-09-30T05:49:29.804Z,1.00
2016-09-30T05:50:30.318Z,2.00
2016-09-30T05:51:30.828Z,2.00
2016-09-30T05:52:31.491Z,2.00
2016-09-30T05:53:31.856Z,2.00
2016-09-30T05:54:32.359Z,2.00
2016-09-30T05:55:32.872Z,2.00
2016-09-30T05:56:33.380Z,2.00
2016-09-30T05:57:33.888Z,2.00
2016-09-30T05:58:34.406Z,2.00
2016-09-30T05:59:34.914Z,2.00
2016-09-30T06:00:35.430Z,2.00
2016-09-30T06:01:36.091Z,2.00
2016-09-30T06:02:36.450Z,2.00
2016-09-30T06:03:36.962Z,2.00
2016-09-30T06:04:37.472Z,2.00
2016-09-30T06:05:37.984Z,2.00
2016-09-30T06:06:38.494Z,2.00
2016-09-30T06:07:39.009Z,2.00
2016-09-30T06:08:39.518Z,2.00
2016-09-30T06:09:40.175Z,2.00
2016-09-30T06:10:40.541Z,2.00
2016-09-30T06:11:41.204Z,2.00
2016-09-30T06:12:41.561Z,3.00
2016-09-30T06:13:42.074Z,3.00
2016-09-30T06:14:42.583Z,3.00
2016-09-30T06:15:43.095Z,3.00
2016-09-30T06:16:43.607Z,3.00
2016-09-30T06:17:44.277Z,3.00
2016-09-30T06:18:44.646Z,3.00
2016-09-30T06:19:45.167Z,3.00
2016-09-30T06:20:45.691Z,3.00
2016-09-30T06:21:46.219Z,3.00
2016-09-30T06:22:46.743Z,3.00
2016-09-30T06:23:47.263Z,3.00
2016-09-30T06:24:47.787Z,3.00
2016-09-30T06:25:48.312Z,3.00
2016-09-30T06:26:48.832Z,3.00
2016-09-30T06:27:49.365Z,3.00
2016-09-30T06:28:49.879Z,4.00
2016-09-30T06:29:50.385Z,4.00
2016-09-30T06:30:50.899Z,4.00
2016-09-30T06:31:51.411Z,4.00
2016-09-30T06:32:51.921Z,4.00
2016-09-30T06:33:52.437Z,4.00
2016-09-30T06:34:52.955Z,4.00
2016-09-30T06:35:53.605Z,5.00
2016-09-30T06:36:53.959Z,5.00
2016-09-30T06:37:54.500Z,5.00
2016-09-30T06:38:54.997Z,6.00
2016-09-30T06:39:55.500Z,7.00
2016-09-30T06:40:56.013Z,8.00
2016-09-30T06:41:56.525Z,8.00
2016-09-30T06:42:57.039Z,8.00
2016-09-30T06:43:57.549Z,8.00
2016-09-30T06:44:58.211Z,9.00
2016-09-30T06:45:58.568Z,9.00
2016-09-30T06:46:59.231Z,9.00
2016-09-30T06:47:59.595Z,9.00
2016-09-30T06:49:00.108Z,10.00
2016-09-30T06:50:00.623Z,10.00
2016-09-30T06:51:01.131Z,9.00
2016-09-30T06:52:01.645Z,9.00
2016-09-30T06:53:02.162Z,9.00
2016-09-30T06:54:02.671Z,10.00
2016-09-30T06:55:03.191Z,10.00
2016-09-30T06:56:03.705Z,10.00
2016-09-30T06:57:04.220Z,11.00
2016-09-30T06:58:04.736Z,11.00
2016-09-30T06:59:05.249Z,12.00
2016-09-30T07:00:05.914Z,12.00
2016-09-30T07:01:06.296Z,13.00
2016-09-30T07:02:06.791Z,13.00
2016-09-30T07:03:07.300Z,14.00
2016-09-30T07:04:07.814Z,14.00
2016-09-30T07:05:08.478Z,14.00
2016-09-30T07:07:00.646Z,15.00
2016-09-30T07:08:10.007Z,15.00
2016-09-30T07:09:10.516Z,15.00
2016-09-30T07:10:10.875Z,14.00
2016-09-30T07:11:11.540Z,17.00
2016-09-30T07:12:11.900Z,16.00
2016-09-30T07:13:12.442Z,14.00
2016-09-30T07:14:13.091Z,14.00
2016-09-30T07:15:13.436Z,17.00
2016-09-30T07:16:13.950Z,17.00
2016-09-30T07:17:14.614Z,24.00
2016-09-30T07:18:15.118Z,17.00
2016-09-30T07:19:15.482Z,15.00
2016-09-30T07:20:15.996Z,16.00
2016-09-30T07:21:16.507Z,14.00
2016-09-30T07:22:17.016Z,20.00
2016-09-30T07:23:17.680Z,29.00
2016-09-30T07:24:18.044Z,29.00
2016-09-30T07:25:18.566Z,27.00
2016-09-30T07:26:19.066Z,16.00
2016-09-30T07:27:19.737Z,19.00
2016-09-30T07:28:20.090Z,28.00
2016-09-30T07:29:20.748Z,22.00
2016-09-30T07:30:21.111Z,27.00
2016-09-30T07:31:21.619Z,22.00
2016-09-30T07:32:22.163Z,24.00
2016-09-30T07:33:22.646Z,16.00
2016-09-30T07:34:23.342Z,18.00
2016-09-30T07:35:23.677Z,17.00
2016-09-30T07:36:24.350Z,16.00
2016-09-30T07:37:24.709Z,22.00
2016-09-30T07:38:25.226Z,19.00
2016-09-30T07:39:25.734Z,19.00
2016-09-30T07:40:26.396Z,19.00
2016-09-30T07:41:26.788Z,18.00
2016-09-30T07:42:27.414Z,18.00
2016-09-30T07:43:28.079Z,21.00
2016-09-30T07:44:28.290Z,32.00
2016-09-30T07:45:28.798Z,25.00
2016-09-30T07:46:29.306Z,27.00
2016-09-30T07:47:29.822Z,26.00
2016-09-30T07:48:31.990Z,20.00
2016-09-30T07:49:30.847Z,19.00
2016-09-30T07:50:31.357Z,18.00
2016-09-30T07:51:32.021Z,17.00
2016-09-30T07:52:32.530Z,17.00
2016-09-30T07:53:32.903Z,16.00
2016-09-30T07:54:33.407Z,17.00
2016-09-30T07:55:33.917Z,18.00
2016-09-30T07:56:34.428Z,19.00
2016-09-30T07:57:34.940Z,20.00
2016-09-30T07:58:35.452Z,21.00
2016-09-30T07:59:35.964Z,19.00
2016-09-30T08:00:36.474Z,19.00
2016-09-30T08:01:36.982Z,19.00
2016-09-30T08:02:37.503Z,18.00
2016-09-30T08:03:38.001Z,17.00
2016-09-30T08:04:38.513Z,17.00
2016-09-30T08:05:39.022Z,16.00
2016-09-30T08:06:41.185Z,16.00
2016-09-30T08:07:40.045Z,15.00
2016-09-30T08:08:40.560Z,14.00
2016-09-30T08:09:41.220Z,13.00
2016-09-30T08:10:41.581Z,13.00
2016-09-30T08:11:42.089Z,14.00
2016-09-30T08:12:42.605Z,15.00
2016-09-30T08:13:43.123Z,16.00
2016-09-30T08:14:43.789Z,17.00
2016-09-30T08:15:44.152Z,19.00
2016-09-30T08:16:44.670Z,21.00
2016-09-30T08:17:45.179Z,24.00
2016-09-30T08:18:45.845Z,22.00
2016-09-30T08:19:46.208Z,25.00
2016-09-30T08:20:46.719Z,28.00
2016-09-30T08:21:47.232Z,35.00
2016-09-30T08:22:47.744Z,24.00
2016-09-30T08:23:48.256Z,22.00
2016-09-30T08:24:48.766Z,21.00
2016-09-30T08:25:49.430Z,20.00
2016-09-30T08:26:49.786Z,20.00
2016-09-30T08:27:50.296Z,19.00
2016-09-30T08:28:50.949Z,19.00
2016-09-30T08:29:51.471Z,18.00
2016-09-30T08:30:51.830Z,18.00
2016-09-30T08:31:52.341Z,17.00
2016-09-30T08:32:52.855Z,16.00
2016-09-30T08:33:53.516Z,17.00
2016-09-30T08:34:53.880Z,16.00
2016-09-30T08:35:54.396Z,16.00
2016-09-30T08:36:55.202Z,17.00
2016-09-30T08:37:55.415Z,17.00
2016-09-30T08:38:55.953Z,18.00
2016-09-30T08:39:56.435Z,18.00
2016-09-30T08:40:56.948Z,18.00
2016-09-30T08:41:57.465Z,17.00
2016-09-30T08:42:57.975Z,17.00
2016-09-30T08:43:58.488Z,18.00
2016-09-30T08:44:59.153Z,19.00
2016-09-30T08:45:59.665Z,19.00
2016-09-30T08:47:00.027Z,20.00
2016-09-30T08:48:00.550Z,20.00
2016-09-30T08:49:01.055Z,20.00
2016-09-30T08:50:01.572Z,20.00
2016-09-30T08:51:02.090Z,20.00
2016-09-30T08:52:02.604Z,20.00
2016-09-30T08:53:03.123Z,19.00
2016-09-30T08:54:03.640Z,19.00
2016-09-30T08:55:04.297Z,19.00
2016-09-30T08:56:04.659Z,19.00
2016-09-30T08:57:05.175Z,21.00
2016-09-30T08:58:05.685Z,22.00
2016-09-30T08:59:06.346Z,23.00
2016-09-30T09:00:06.710Z,23.00
2016-09-30T09:01:07.226Z,24.00
2016-09-30T09:02:07.760Z,25.00
2016-09-30T09:03:08.406Z,28.00
2016-09-30T09:04:08.762Z,33.00
2016-09-30T09:05:09.425Z,42.00
2016-09-30T09:06:09.786Z,42.00
2016-09-30T09:07:10.296Z,52.00
2016-09-30T09:08:10.814Z,52.00
2016-09-30T09:09:11.329Z,54.00
2016-09-30T09:10:11.830Z,54.00
2016-09-30T09:11:12.351Z,49.00
2016-09-30T09:12:13.007Z,42.00
2016-09-30T09:13:13.367Z,47.00
2016-09-30T09:14:13.892Z,31.00
2016-09-30T09:15:14.392Z,30.00
2016-09-30T09:16:15.049Z,26.00
2016-09-30T09:17:15.411Z,39.00
2016-09-30T09:18:15.918Z,50.00
2016-09-30T09:19:16.432Z,52.00
2016-09-30T09:20:16.944Z,52.00
2016-09-30T09:21:17.458Z,34.00
2016-09-30T09:22:17.972Z,44.00
2016-09-30T09:23:18.485Z,46.00
2016-09-30T09:24:18.999Z,30.00
2016-09-30T09:25:19.506Z,47.00
2016-09-30T09:26:20.022Z,44.00
2016-09-30T09:27:20.700Z,43.00
2016-09-30T09:28:21.086Z,29.00
2016-09-30T09:29:21.576Z,51.00
2016-09-30T09:30:22.089Z,56.00
2016-09-30T09:31:22.592Z,55.00
2016-09-30T09:32:23.111Z,55.00
2016-09-30T09:33:23.765Z,50.00
2016-09-30T09:34:24.130Z,48.00
2016-09-30T09:35:24.649Z,48.00
2016-09-30T09:36:25.168Z,44.00
2016-09-30T09:37:25.667Z,42.00
2016-09-30T09:38:26.177Z,40.00
2016-09-30T09:39:26.685Z,40.00
2016-09-30T09:40:27.195Z,36.00
2016-09-30T09:41:27.707Z,40.00
2016-09-30T09:42:28.218Z,41.00
2016-09-30T09:43:28.738Z,41.00
2016-09-30T09:44:29.242Z,40.00
2016-09-30T09:45:29.753Z,35.00
2016-09-30T09:46:30.265Z,33.00
2016-09-30T09:47:30.779Z,31.00
2016-09-30T09:48:31.289Z,32.00
2016-09-30T09:49:31.831Z,32.00
2016-09-30T09:50:32.320Z,34.00
2016-09-30T09:51:32.855Z,33.00
2016-09-30T09:52:33.347Z,36.00
2016-09-30T09:53:33.853Z,34.00
2016-09-30T09:54:34.511Z,34.00
2016-09-30T09:55:34.872Z,32.00
2016-09-30T09:56:35.405Z,32.00
2016-09-30T09:57:35.900Z,33.00
2016-09-30T09:58:36.405Z,38.00
2016-09-30T09:59:36.913Z,32.00
2016-09-30T10:00:37.425Z,32.00
2016-09-30T10:01:37.942Z,38.00
2016-09-30T10:02:38.458Z,35.00
2016-09-30T10:03:39.001Z,38.00
2016-09-30T10:04:39.496Z,35.00
2016-09-30T10:05:40.012Z,35.00
2016-09-30T10:06:40.519Z,30.00
2016-09-30T10:07:41.036Z,24.00
2016-09-30T10:08:41.543Z,21.00
2016-09-30T10:09:42.203Z,23.00
2016-09-30T10:10:42.570Z,24.00
2016-09-30T10:11:43.082Z,31.00
2016-09-30T10:12:44.038Z,31.00
2016-09-30T10:13:44.105Z,33.00
2016-09-30T10:14:44.606Z,35.00
2016-09-30T10:15:45.119Z,35.00
2016-09-30T10:16:45.631Z,37.00
2016-09-30T10:17:46.149Z,38.00
2016-09-30T10:18:46.809Z,39.00
2016-09-30T10:19:47.179Z,41.00
2016-09-30T10:20:47.689Z,38.00
2016-09-30T10:21:48.202Z,37.00
2016-09-30T10:22:48.713Z,38.00
2016-09-30T10:23:49.225Z,36.00
2016-09-30T10:24:49.738Z,36.00
2016-09-30T10:25:50.270Z,34.00
2016-09-30T10:26:50.761Z,33.00
2016-09-30T10:27:51.419Z,33.00
2016-09-30T10:28:51.784Z,31.00
2016-09-30T10:29:52.298Z,31.00
2016-09-30T10:30:52.806Z,34.00
2016-09-30T10:31:53.318Z,37.00
2016-09-30T10:32:53.823Z,35.00
2016-09-30T10:33:54.364Z,35.00
2016-09-30T10:34:54.998Z,36.00
2016-09-30T10:35:55.359Z,39.00
2016-09-30T10:36:55.875Z,43.00
2016-09-30T10:37:56.548Z,47.00
2016-09-30T10:38:56.890Z,49.00
2016-09-30T10:39:57.406Z,49.00
2016-09-30T10:40:57.926Z,47.00
2016-09-30T10:41:58.440Z,47.00
2016-09-30T10:42:59.113Z,44.00
2016-09-30T10:43:59.467Z,43.00
2016-09-30T10:44:59.995Z,44.00
2016-09-30T10:46:00.494Z,45.00
2016-09-30T10:47:01.007Z,45.00
2016-09-30T10:48:01.519Z,45.00
2016-09-30T10:49:02.031Z,45.00
2016-09-30T10:50:02.544Z,44.00
2016-09-30T10:51:03.055Z,41.00
2016-09-30T10:52:03.569Z,40.00
2016-09-30T10:53:04.083Z,40.00
2016-09-30T10:54:04.586Z,41.00
2016-09-30T10:55:05.135Z,45.00
2016-09-30T10:56:05.610Z,46.00
2016-09-30T10:57:06.120Z,47.00
2016-09-30T10:58:06.642Z,48.00
2016-09-30T10:59:07.150Z,49.00
2016-09-30T11:00:07.656Z,49.00
2016-09-30T11:01:08.157Z,48.00
2016-09-30T11:02:08.670Z,47.00
2016-09-30T11:03:09.189Z,46.00
2016-09-30T11:04:09.840Z,46.00
2016-09-30T11:05:10.199Z,49.00
2016-09-30T11:06:10.868Z,51.00
2016-09-30T11:07:11.228Z,51.00
2016-09-30T11:08:11.745Z,52.00
2016-09-30T11:09:12.252Z,55.00
2016-09-30T11:10:12.767Z,53.00
2016-09-30T11:11:13.280Z,54.00
2016-09-30T11:12:13.792Z,55.00
2016-09-30T11:13:14.301Z,52.00
2016-09-30T11:14:14.814Z,52.00
2016-09-30T11:15:15.324Z,58.00
2016-09-30T11:16:15.839Z,60.00
2016-09-30T11:17:16.504Z,60.00
2016-09-30T11:18:17.474Z,53.00
2016-09-30T11:19:17.389Z,53.00
2016-09-30T11:20:17.903Z,55.00
2016-09-30T11:21:18.420Z,48.00
2016-09-30T11:22:19.085Z,51.00
2016-09-30T11:23:19.446Z,52.00
2016-09-30T11:24:19.961Z,53.00
2016-09-30T11:25:20.471Z,51.00
2016-09-30T11:26:21.132Z,30.00
2016-09-30T11:27:21.674Z,45.00
2016-09-30T11:28:22.005Z,30.00
2016-09-30T11:29:22.515Z,41.00
2016-09-30T11:30:23.024Z,47.00
2016-09-30T11:31:23.690Z,48.00
2016-09-30T11:32:24.201Z,30.00
2016-09-30T11:33:24.560Z,31.00
2016-09-30T11:34:25.088Z,44.00
2016-09-30T11:35:25.737Z,50.00
2016-09-30T11:36:26.103Z,47.00
2016-09-30T11:37:26.632Z,39.00
2016-09-30T11:38:27.127Z,40.00
2016-09-30T11:39:27.645Z,38.00
2016-09-30T11:40:28.155Z,38.00
2016-09-30T11:41:28.810Z,42.00
2016-09-30T11:42:29.180Z,44.00
2016-09-30T11:43:29.682Z,49.00
2016-09-30T11:44:30.196Z,48.00
2016-09-30T11:45:30.731Z,44.00
2016-09-30T11:46:31.229Z,42.00
2016-09-30T11:47:31.738Z,49.00
2016-09-30T11:48:34.055Z,49.00
2016-09-30T11:49:32.758Z,46.00
2016-09-30T11:50:33.271Z,50.00
2016-09-30T11:51:33.779Z,43.00
2016-09-30T11:52:34.294Z,31.00
2016-09-30T11:53:34.813Z,28.00
2016-09-30T11:54:35.329Z,24.00
2016-09-30T11:55:35.850Z,22.00
2016-09-30T11:56:36.366Z,21.00
2016-09-30T11:57:36.877Z,22.00
2016-09-30T11:58:37.424Z,20.00
2016-09-30T11:59:38.202Z,20.00
2016-09-30T12:00:38.438Z,20.00
2016-09-30T12:01:38.929Z,20.00
2016-09-30T12:02:39.439Z,20.00
2016-09-30T12:04:40.467Z,22.00
2016-09-30T12:05:40.971Z,21.00
2016-09-30T12:06:42.836Z,21.00
2016-09-30T12:07:41.994Z,22.00
2016-09-30T12:08:42.653Z,24.00
2016-09-30T12:09:43.036Z,31.00
2016-09-30T12:10:43.538Z,38.00
2016-09-30T12:11:44.040Z,37.00
2016-09-30T12:12:44.556Z,33.00
2016-09-30T12:13:45.061Z,25.00
2016-09-30T12:14:45.575Z,22.00
2016-09-30T12:15:46.083Z,22.00
2016-09-30T12:16:46.597Z,25.00
2016-09-30T12:17:47.257Z,22.00
2016-09-30T12:18:47.622Z,22.00
2016-09-30T12:19:48.127Z,23.00
2016-09-30T12:20:48.645Z,24.00
2016-09-30T12:21:49.156Z,23.00
2016-09-30T12:22:49.662Z,22.00
2016-09-30T12:23:50.173Z,21.00
2016-09-30T12:24:50.683Z,23.00
2016-09-30T12:25:51.195Z,20.00
2016-09-30T12:26:51.856Z,18.00
2016-09-30T12:27:52.369Z,17.00
2016-09-30T12:28:52.882Z,18.00
2016-09-30T12:29:53.242Z,18.00
2016-09-30T12:30:53.759Z,19.00
2016-09-30T12:31:54.425Z,19.00
2016-09-30T12:32:54.791Z,20.00
2016-09-30T12:33:55.307Z,23.00
2016-09-30T12:34:55.820Z,23.00
2016-09-30T12:35:56.330Z,24.00
2016-09-30T12:36:56.848Z,27.00
2016-09-30T12:37:57.354Z,26.00
2016-09-30T12:38:57.865Z,37.00
2016-09-30T12:39:58.375Z,25.00
2016-09-30T12:40:58.895Z,23.00
2016-09-30T12:41:59.402Z,25.00
2016-09-30T12:43:00.054Z,26.00
2016-09-30T12:44:00.416Z,27.00
2016-09-30T12:45:00.936Z,26.00
2016-09-30T12:46:01.440Z,27.00
2016-09-30T12:47:02.111Z,28.00
2016-09-30T12:48:02.486Z,29.00
2016-09-30T12:49:02.973Z,30.00
2016-09-30T12:50:03.490Z,55.00
2016-09-30T12:51:03.999Z,62.00
2016-09-30T12:52:04.678Z,60.00
2016-09-30T12:53:05.061Z,48.00
2016-09-30T12:54:05.534Z,52.00
2016-09-30T12:55:06.042Z,38.00
2016-09-30T12:56:06.579Z,46.00
2016-09-30T12:57:07.066Z,67.00
2016-09-30T12:58:07.578Z,69.00
2016-09-30T12:59:08.088Z,69.00
2016-09-30T13:00:08.607Z,67.00
2016-09-30T13:01:09.112Z,66.00
2016-09-30T13:02:09.619Z,55.00
2016-09-30T13:03:10.293Z,32.00
2016-09-30T13:04:10.639Z,31.00
2016-09-30T13:05:11.152Z,20.00
2016-09-30T13:06:11.662Z,18.00
2016-09-30T13:07:12.180Z,17.00
2016-09-30T13:08:12.686Z,16.00
2016-09-30T13:09:13.205Z,17.00
2016-09-30T13:10:13.726Z,17.00
2016-09-30T13:11:14.229Z,17.00
2016-09-30T13:12:14.745Z,16.00
2016-09-30T13:13:15.258Z,15.00
2016-09-30T13:14:15.766Z,15.00